Time;durP1;ratioP1;P1;durP2;ratioP2;P2;SDS_P1;SDS_P2;PMS_P1;PMS_P2;Temp;Humidity;BMP_temperature;BMP_pressure;BME280_temperature;BME280_humidity;BME280_pressure;Samples;Min_cycle;Max_cycle;Signal;HPM_P1;HPM_P2
2022/03/31 00:00:35;;;;;;;9.25;5.72;;;;;;;;;;4951744;28;20411;-64
2022/03/31 00:03:02;;;;;;;9.45;5.05;;;;;;;;;;4951902;28;20184;-64
2022/03/31 00:05:28;;;;;;;10.40;5.88;;;;;;;;;;4951323;28;20342;-64
2022/03/31 00:07:55;;;;;;;9.13;5.57;;;;;;;;;;4951428;28;20322;-64
2022/03/31 00:10:26;;;;;;;10.57;5.20;;;;;;;;;;4951785;28;20376;-64
2022/03/31 00:12:52;;;;;;;8.45;4.72;;;;;;;;;;4951257;28;20427;-64
2022/03/31 00:15:18;;;;;;;9.82;5.50;;;;;;;;;;4951667;28;20437;-65
2022/03/31 00:17:43;;;;;;;8.07;5.15;;;;;;;;;;4951340;28;20491;-64
2022/03/31 00:20:10;;;;;;;9.70;5.47;;;;;;;;;;4952168;28;20459;-65
2022/03/31 00:22:36;;;;;;;9.63;5.32;;;;;;;;;;4951550;28;20409;-64
2022/03/31 00:25:02;;;;;;;8.27;4.57;;;;;;;;;;4951354;28;20456;-64
2022/03/31 00:27:27;;;;;;;7.95;4.50;;;;;;;;;;4949226;28;20088;-64
2022/03/31 00:29:52;;;;;;;8.75;4.75;;;;;;;;;;4951034;28;20420;-64
2022/03/31 00:32:18;;;;;;;8.00;4.57;;;;;;;;;;4951054;28;20430;-65
2022/03/31 00:34:43;;;;;;;9.77;4.82;;;;;;;;;;4950837;28;20398;-64
2022/03/31 00:37:09;;;;;;;8.10;4.70;;;;;;;;;;4950846;28;20074;-64
2022/03/31 00:39:34;;;;;;;8.63;4.55;;;;;;;;;;4951774;28;20429;-65
2022/03/31 00:42:02;;;;;;;7.32;4.30;;;;;;;;;;4950804;28;20415;-64
2022/03/31 00:44:28;;;;;;;5.25;3.67;;;;;;;;;;4950406;28;20369;-64
2022/03/31 00:46:55;;;;;;;7.40;4.10;;;;;;;;;;4951889;28;20470;-65
2022/03/31 00:49:22;;;;;;;6.18;3.95;;;;;;;;;;4951763;28;20392;-65
2022/03/31 00:51:49;;;;;;;7.30;3.50;;;;;;;;;;4950906;28;20445;-64
2022/03/31 00:54:15;;;;;;;8.30;4.20;;;;;;;;;;4950882;28;20100;-64
2022/03/31 00:56:41;;;;;;;7.40;4.00;;;;;;;;;;4950623;28;20445;-64
2022/03/31 00:59:08;;;;;;;7.78;3.60;;;;;;;;;;4950476;28;20418;-64
2022/03/31 01:01:35;;;;;;;5.80;3.63;;;;;;;;;;4938261;28;20442;-64
2022/03/31 01:04:01;;;;;;;5.20;3.15;;;;;;;;;;4948331;28;20326;-65
2022/03/31 01:06:26;;;;;;;5.72;3.33;;;;;;;;;;4949016;28;20457;-64
2022/03/31 01:08:52;;;;;;;4.93;3.15;;;;;;;;;;4951274;28;20393;-64
2022/03/31 01:11:17;;;;;;;5.85;3.30;;;;;;;;;;4949343;28;20382;-64
2022/03/31 01:13:42;;;;;;;4.07;3.05;;;;;;;;;;4951124;28;20388;-64
2022/03/31 01:16:08;;;;;;;4.40;2.90;;;;;;;;;;4950226;28;20434;-64
2022/03/31 01:18:34;;;;;;;4.07;2.90;;;;;;;;;;4950082;28;20162;-64
2022/03/31 01:21:01;;;;;;;4.85;3.60;;;;;;;;;;4950077;28;20523;-63
2022/03/31 01:23:27;;;;;;;6.28;3.38;;;;;;;;;;4951512;28;20436;-65
2022/03/31 01:25:52;;;;;;;4.28;2.75;;;;;;;;;;4949986;28;20430;-64
2022/03/31 01:28:18;;;;;;;4.30;3.20;;;;;;;;;;4950422;28;20456;-64
2022/03/31 01:30:43;;;;;;;5.07;2.85;;;;;;;;;;4950066;28;20389;-65
2022/03/31 01:33:09;;;;;;;4.20;2.50;;;;;;;;;;4951228;28;20526;-64
2022/03/31 01:35:34;;;;;;;3.45;2.30;;;;;;;;;;4951444;28;20025;-64
2022/03/31 01:38:00;;;;;;;4.78;2.47;;;;;;;;;;4950416;28;20408;-64
2022/03/31 01:40:25;;;;;;;4.20;2.35;;;;;;;;;;4949912;28;20361;-64
2022/03/31 01:42:50;;;;;;;4.93;2.60;;;;;;;;;;4950957;28;20054;-64
2022/03/31 01:45:18;;;;;;;4.53;2.75;;;;;;;;;;4949605;28;20026;-64
2022/03/31 01:47:44;;;;;;;4.22;2.58;;;;;;;;;;4951219;28;20367;-64
2022/03/31 01:50:10;;;;;;;3.92;2.58;;;;;;;;;;4950226;28;20038;-64
2022/03/31 01:52:36;;;;;;;4.15;2.55;;;;;;;;;;4949939;28;20029;-64
2022/03/31 01:55:02;;;;;;;3.75;2.45;;;;;;;;;;4950314;28;20363;-64
2022/03/31 01:57:28;;;;;;;4.45;2.47;;;;;;;;;;4949723;28;20045;-64
2022/03/31 01:59:54;;;;;;;4.55;2.28;;;;;;;;;;4949945;28;20329;-64
2022/03/31 02:02:20;;;;;;;2.83;2.10;;;;;;;;;;4950208;28;20587;-64
2022/03/31 02:04:46;;;;;;;4.07;2.45;;;;;;;;;;4949954;28;20443;-64
2022/03/31 02:07:11;;;;;;;4.15;2.42;;;;;;;;;;4949677;28;20349;-68
2022/03/31 02:09:37;;;;;;;5.82;2.75;;;;;;;;;;4949889;28;20449;-64
2022/03/31 02:12:03;;;;;;;2.65;2.15;;;;;;;;;;4949499;28;20414;-64
2022/03/31 02:14:29;;;;;;;3.17;2.15;;;;;;;;;;4949541;28;20340;-65
2022/03/31 02:16:55;;;;;;;4.05;2.33;;;;;;;;;;4949579;28;20329;-64
2022/03/31 02:19:21;;;;;;;2.67;1.95;;;;;;;;;;4951322;28;20464;-64
2022/03/31 02:21:46;;;;;;;3.55;2.10;;;;;;;;;;4949856;28;20497;-64
2022/03/31 02:24:12;;;;;;;3.15;2.08;;;;;;;;;;4950537;28;20345;-64
2022/03/31 02:26:38;;;;;;;3.63;2.22;;;;;;;;;;4949948;28;20465;-64
2022/03/31 02:29:03;;;;;;;3.88;2.17;;;;;;;;;;4949808;28;20358;-64
2022/03/31 02:31:30;;;;;;;3.70;2.20;;;;;;;;;;4953654;28;20417;-64
2022/03/31 02:33:56;;;;;;;4.00;2.22;;;;;;;;;;4952039;28;20333;-64
2022/03/31 02:36:21;;;;;;;3.65;2.22;;;;;;;;;;4954896;28;20321;-65
2022/03/31 02:38:47;;;;;;;3.30;2.15;;;;;;;;;;4953492;28;20328;-65
2022/03/31 02:41:12;;;;;;;3.95;1.95;;;;;;;;;;4953120;28;20453;-64
2022/03/31 02:43:38;;;;;;;4.20;2.05;;;;;;;;;;4952913;28;20664;-64
2022/03/31 02:46:03;;;;;;;4.88;1.98;;;;;;;;;;4953240;28;20442;-65
2022/03/31 02:48:28;;;;;;;3.13;2.05;;;;;;;;;;4953725;28;20425;-64
2022/03/31 02:50:54;;;;;;;3.38;1.98;;;;;;;;;;4952900;28;20080;-64
2022/03/31 02:56:03;;;;;;;2.50;1.80;;;;;;;;;;4953528;28;20352;-64
2022/03/31 02:58:29;;;;;;;2.45;1.83;;;;;;;;;;4952799;28;20033;-64
2022/03/31 03:00:54;;;;;;;2.78;1.95;;;;;;;;;;4953097;28;20333;-64
2022/03/31 03:03:20;;;;;;;2.15;1.65;;;;;;;;;;4953968;28;20417;-65
2022/03/31 03:05:46;;;;;;;2.85;1.52;;;;;;;;;;4953991;28;20476;-65
2022/03/31 03:08:12;;;;;;;2.42;1.80;;;;;;;;;;4952668;28;20321;-64
2022/03/31 03:10:38;;;;;;;2.80;1.90;;;;;;;;;;4952677;28;20461;-64
2022/03/31 03:13:03;;;;;;;2.42;1.85;;;;;;;;;;4952457;28;20358;-64
2022/03/31 03:15:29;;;;;;;2.55;1.52;;;;;;;;;;4952274;28;20359;-64
2022/03/31 03:17:54;;;;;;;2.60;1.65;;;;;;;;;;4953643;28;20517;-64
2022/03/31 03:20:20;;;;;;;2.75;1.88;;;;;;;;;;4952466;28;20394;-64
2022/03/31 03:22:47;;;;;;;2.05;1.50;;;;;;;;;;4952950;28;20449;-63
2022/03/31 03:25:15;;;;;;;2.20;1.40;;;;;;;;;;4952362;28;20337;-64
2022/03/31 03:27:41;;;;;;;1.87;1.50;;;;;;;;;;4952516;28;20126;-64
2022/03/31 03:30:07;;;;;;;2.75;1.65;;;;;;;;;;4952027;28;20034;-64
2022/03/31 03:32:34;;;;;;;2.50;1.77;;;;;;;;;;4952461;28;20583;-64
2022/03/31 03:35:00;;;;;;;1.98;1.52;;;;;;;;;;4952826;28;20444;-64
2022/03/31 03:37:25;;;;;;;2.42;1.80;;;;;;;;;;4952225;28;20361;-64
2022/03/31 03:39:51;;;;;;;2.58;1.77;;;;;;;;;;4951999;28;20543;-64
2022/03/31 03:42:17;;;;;;;2.28;1.50;;;;;;;;;;4953330;28;20080;-64
2022/03/31 03:44:42;;;;;;;3.13;1.60;;;;;;;;;;4951883;28;20520;-64
2022/03/31 03:47:07;;;;;;;2.22;1.50;;;;;;;;;;4952772;28;20442;-64
2022/03/31 03:49:33;;;;;;;2.78;1.67;;;;;;;;;;4952525;28;20441;-64
2022/03/31 03:51:59;;;;;;;2.08;1.40;;;;;;;;;;4951536;28;20353;-64
2022/03/31 03:54:24;;;;;;;2.20;1.40;;;;;;;;;;4952161;28;20349;-64
2022/03/31 03:56:49;;;;;;;1.60;1.33;;;;;;;;;;4951511;28;20030;-64
2022/03/31 03:59:15;;;;;;;2.33;1.52;;;;;;;;;;4953329;28;20056;-64
2022/03/31 04:01:40;;;;;;;1.92;1.40;;;;;;;;;;4952052;28;20365;-64
2022/03/31 04:04:05;;;;;;;2.03;1.45;;;;;;;;;;4951922;28;20417;-64
2022/03/31 04:06:31;;;;;;;2.78;1.40;;;;;;;;;;4952674;28;20425;-64
2022/03/31 04:08:56;;;;;;;1.58;1.30;;;;;;;;;;4951534;28;20419;-64
2022/03/31 04:11:21;;;;;;;2.78;1.20;;;;;;;;;;4951512;28;20104;-64
2022/03/31 04:13:46;;;;;;;2.65;1.40;;;;;;;;;;4951489;28;20184;-65
2022/03/31 04:16:12;;;;;;;1.75;1.35;;;;;;;;;;4951302;28;20034;-64
2022/03/31 04:18:38;;;;;;;1.75;1.50;;;;;;;;;;4951499;28;20400;-64
2022/03/31 04:21:04;;;;;;;2.78;1.45;;;;;;;;;;4951369;28;20534;-64
2022/03/31 04:23:29;;;;;;;1.50;1.40;;;;;;;;;;4951584;28;20448;-64
2022/03/31 04:25:54;;;;;;;3.58;1.67;;;;;;;;;;4952907;28;20449;-64
2022/03/31 04:28:20;;;;;;;1.63;1.52;;;;;;;;;;4949821;28;20423;-65
2022/03/31 04:30:45;;;;;;;3.75;2.22;;;;;;;;;;4951468;28;20344;-64
2022/03/31 04:33:10;;;;;;;3.33;2.03;;;;;;;;;;4952196;28;20038;-64
2022/03/31 04:35:36;;;;;;;3.30;1.95;;;;;;;;;;4952167;28;20329;-64
2022/03/31 04:38:02;;;;;;;2.80;1.98;;;;;;;;;;4950652;28;20434;-64
2022/03/31 04:40:28;;;;;;;3.58;2.00;;;;;;;;;;4951495;28;20395;-64
2022/03/31 04:42:53;;;;;;;3.97;2.40;;;;;;;;;;4951481;28;20452;-64
2022/03/31 04:45:18;;;;;;;3.42;2.33;;;;;;;;;;4951152;28;20441;-63
2022/03/31 04:47:46;;;;;;;2.83;2.08;;;;;;;;;;4950455;28;20461;-64
2022/03/31 04:50:12;;;;;;;3.72;2.38;;;;;;;;;;4950774;28;20422;-64
2022/03/31 04:52:38;;;;;;;2.92;2.00;;;;;;;;;;4950972;28;20333;-63
2022/03/31 04:55:04;;;;;;;2.65;2.08;;;;;;;;;;4950220;28;20075;-64
2022/03/31 04:57:29;;;;;;;2.70;2.20;;;;;;;;;;4950636;28;20579;-64
2022/03/31 04:59:54;;;;;;;3.10;2.13;;;;;;;;;;4950510;28;20378;-64
2022/03/31 05:02:19;;;;;;;3.42;2.33;;;;;;;;;;4950479;28;20539;-64
2022/03/31 05:04:45;;;;;;;3.65;2.20;;;;;;;;;;4950238;28;20458;-63
2022/03/31 05:07:10;;;;;;;5.07;2.50;;;;;;;;;;4950210;28;20056;-64
2022/03/31 05:09:36;;;;;;;4.75;2.53;;;;;;;;;;4949864;28;20515;-64
2022/03/31 05:12:01;;;;;;;3.67;1.95;;;;;;;;;;4950118;28;20388;-64
2022/03/31 05:14:26;;;;;;;3.05;1.85;;;;;;;;;;4950764;28;20105;-64
2022/03/31 05:16:52;;;;;;;2.58;1.77;;;;;;;;;;4950761;28;20172;-63
2022/03/31 05:19:17;;;;;;;2.53;1.92;;;;;;;;;;4950220;28;20346;-64
2022/03/31 05:21:43;;;;;;;2.38;1.70;;;;;;;;;;4949823;28;20435;-64
2022/03/31 05:24:09;;;;;;;3.53;2.10;;;;;;;;;;4949987;28;20424;-64
2022/03/31 05:26:35;;;;;;;2.90;2.25;;;;;;;;;;4950804;28;20444;-64
2022/03/31 05:29:00;;;;;;;3.17;1.90;;;;;;;;;;4949803;28;20546;-64
2022/03/31 05:31:25;;;;;;;2.88;2.10;;;;;;;;;;4949806;28;20533;-64
2022/03/31 05:33:51;;;;;;;3.00;2.10;;;;;;;;;;4950317;28;20496;-64
2022/03/31 05:36:16;;;;;;;2.78;1.63;;;;;;;;;;4951152;28;20429;-64
2022/03/31 05:38:43;;;;;;;2.47;1.85;;;;;;;;;;4950605;28;20388;-64
2022/03/31 05:41:08;;;;;;;3.22;2.10;;;;;;;;;;4949419;28;20520;-63
2022/03/31 05:43:33;;;;;;;2.25;1.65;;;;;;;;;;4950853;28;20445;-63
2022/03/31 05:45:59;;;;;;;2.08;1.70;;;;;;;;;;4949678;28;20061;-64
2022/03/31 05:48:24;;;;;;;4.15;2.20;;;;;;;;;;4949874;28;20436;-64
2022/03/31 05:50:49;;;;;;;2.20;1.50;;;;;;;;;;4950604;28;20372;-64
2022/03/31 05:53:15;;;;;;;2.67;1.80;;;;;;;;;;4950347;28;20424;-64
2022/03/31 05:55:40;;;;;;;2.53;1.83;;;;;;;;;;4949504;28;20022;-64
2022/03/31 05:58:07;;;;;;;2.92;1.55;;;;;;;;;;4950041;28;20369;-64
2022/03/31 06:00:32;;;;;;;2.58;1.75;;;;;;;;;;4949926;28;20421;-64
2022/03/31 06:02:57;;;;;;;2.47;1.95;;;;;;;;;;4949716;28;20422;-63
2022/03/31 06:05:23;;;;;;;2.40;1.90;;;;;;;;;;4953512;28;20330;-63
2022/03/31 06:07:48;;;;;;;2.47;2.05;;;;;;;;;;4954292;28;20030;-65
2022/03/31 06:10:14;;;;;;;5.47;2.15;;;;;;;;;;4954699;28;20349;-64
2022/03/31 06:12:40;;;;;;;3.13;1.83;;;;;;;;;;4953101;28;20034;-64
2022/03/31 06:15:06;;;;;;;3.42;2.40;;;;;;;;;;4953644;28;20513;-63
2022/03/31 06:17:33;;;;;;;5.10;2.05;;;;;;;;;;4953047;28;20458;-64
2022/03/31 06:19:58;;;;;;;4.18;1.88;;;;;;;;;;4953484;28;20369;-64
2022/03/31 06:22:24;;;;;;;2.70;2.17;;;;;;;;;;4952952;28;20424;-63
2022/03/31 06:24:49;;;;;;;3.47;2.05;;;;;;;;;;4954771;28;20491;-64
2022/03/31 06:27:15;;;;;;;3.50;2.10;;;;;;;;;;4952995;28;20384;-64
2022/03/31 06:29:41;;;;;;;3.33;2.25;;;;;;;;;;4952938;28;20361;-64
2022/03/31 06:32:07;;;;;;;3.40;2.28;;;;;;;;;;4952759;28;20055;-64
2022/03/31 06:34:33;;;;;;;2.83;2.25;;;;;;;;;;4942558;28;20041;-63
2022/03/31 06:36:58;;;;;;;4.82;2.13;;;;;;;;;;4954470;28;20338;-66
2022/03/31 06:39:25;;;;;;;5.55;2.30;;;;;;;;;;4953108;28;20319;-63
2022/03/31 06:41:51;;;;;;;2.72;1.90;;;;;;;;;;4952530;28;20404;-64
2022/03/31 06:44:19;;;;;;;2.83;2.20;;;;;;;;;;4952057;28;20420;-64
2022/03/31 06:46:44;;;;;;;3.45;2.10;;;;;;;;;;4953810;28;20419;-63
2022/03/31 06:49:10;;;;;;;2.55;1.92;;;;;;;;;;4953021;28;20423;-63
2022/03/31 06:51:35;;;;;;;3.78;2.15;;;;;;;;;;4954396;28;20333;-64
2022/03/31 06:54:02;;;;;;;2.47;1.90;;;;;;;;;;4953465;28;20436;-64
2022/03/31 06:56:28;;;;;;;2.72;2.05;;;;;;;;;;4953725;28;20354;-64
2022/03/31 06:58:54;;;;;;;3.53;2.22;;;;;;;;;;4952380;28;20392;-64
2022/03/31 07:01:19;;;;;;;3.00;1.90;;;;;;;;;;4952321;28;20041;-64
2022/03/31 07:03:45;;;;;;;4.82;2.75;;;;;;;;;;4952513;28;20030;-64
2022/03/31 07:06:10;;;;;;;3.60;2.13;;;;;;;;;;4952002;28;20120;-64
2022/03/31 07:08:35;;;;;;;4.50;1.92;;;;;;;;;;4952502;28;20372;-64
2022/03/31 07:11:03;;;;;;;3.72;2.22;;;;;;;;;;4952483;28;20034;-64
2022/03/31 07:13:28;;;;;;;3.03;2.20;;;;;;;;;;4952189;28;20508;-64
2022/03/31 07:15:54;;;;;;;4.22;2.10;;;;;;;;;;4951686;28;20568;-63
2022/03/31 07:18:19;;;;;;;3.17;2.25;;;;;;;;;;4951942;28;20510;-64
2022/03/31 07:20:44;;;;;;;3.22;2.03;;;;;;;;;;4952371;28;20349;-64
2022/03/31 07:23:10;;;;;;;6.40;2.08;;;;;;;;;;4952091;28;20341;-63
2022/03/31 07:25:35;;;;;;;2.83;2.05;;;;;;;;;;4954641;28;20479;-63
2022/03/31 07:28:00;;;;;;;2.83;2.10;;;;;;;;;;4951835;28;20369;-63
2022/03/31 07:30:26;;;;;;;2.85;2.20;;;;;;;;;;4952013;28;20429;-65
2022/03/31 07:32:58;;;;;;;2.05;1.63;;;;;;;;;;4951668;28;20421;-63
2022/03/31 07:35:26;;;;;;;2.35;1.70;;;;;;;;;;4951945;28;20053;-64
2022/03/31 07:37:52;;;;;;;3.58;2.42;;;;;;;;;;4951658;28;20326;-64
2022/03/31 07:40:19;;;;;;;2.72;2.20;;;;;;;;;;4951725;28;20038;-63
2022/03/31 07:42:44;;;;;;;3.92;2.28;;;;;;;;;;4951100;28;20475;-64
2022/03/31 07:45:11;;;;;;;3.00;2.10;;;;;;;;;;4952224;28;20471;-64
2022/03/31 07:47:37;;;;;;;4.03;2.08;;;;;;;;;;4951817;28;20473;-63
2022/03/31 07:50:03;;;;;;;4.75;2.20;;;;;;;;;;4952062;28;20470;-63
2022/03/31 07:52:28;;;;;;;3.25;1.98;;;;;;;;;;4951937;28;20115;-64
2022/03/31 07:54:54;;;;;;;2.85;2.20;;;;;;;;;;4951022;28;20575;-63
2022/03/31 07:57:19;;;;;;;4.78;1.98;;;;;;;;;;4951867;28;20433;-63
2022/03/31 07:59:44;;;;;;;2.92;1.90;;;;;;;;;;4951573;28;20509;-64
2022/03/31 08:02:10;;;;;;;2.42;1.95;;;;;;;;;;4951347;28;20475;-64
2022/03/31 08:04:35;;;;;;;3.13;2.42;;;;;;;;;;4952178;28;20400;-64
2022/03/31 08:07:01;;;;;;;2.50;2.05;;;;;;;;;;4951660;28;20422;-64
2022/03/31 08:09:26;;;;;;;2.97;2.58;;;;;;;;;;4951240;28;20037;-63
2022/03/31 08:11:52;;;;;;;3.40;2.30;;;;;;;;;;4951287;28;20378;-64
2022/03/31 08:14:21;;;;;;;4.13;2.17;;;;;;;;;;4951486;28;20345;-63
2022/03/31 08:16:50;;;;;;;3.08;1.98;;;;;;;;;;4951858;28;20376;-63
2022/03/31 08:19:17;;;;;;;3.92;2.17;;;;;;;;;;4951003;28;20325;-64
2022/03/31 08:21:46;;;;;;;2.88;2.30;;;;;;;;;;4950646;28;20346;-63
2022/03/31 08:24:13;;;;;;;2.30;1.67;;;;;;;;;;4950883;28;20476;-64
2022/03/31 08:26:40;;;;;;;3.53;2.30;;;;;;;;;;4951307;28;20030;-64
2022/03/31 08:29:07;;;;;;;3.55;2.38;;;;;;;;;;4950883;28;20457;-64
2022/03/31 08:31:33;;;;;;;3.58;2.30;;;;;;;;;;4950990;28;20022;-64
2022/03/31 08:33:58;;;;;;;3.90;2.47;;;;;;;;;;4950699;28;20026;-64
2022/03/31 08:36:24;;;;;;;3.15;2.30;;;;;;;;;;4950575;28;20437;-63
2022/03/31 08:38:49;;;;;;;2.83;2.53;;;;;;;;;;4951996;28;20030;-64
2022/03/31 08:41:16;;;;;;;3.75;2.10;;;;;;;;;;4951465;28;20356;-65
2022/03/31 08:43:42;;;;;;;4.05;2.55;;;;;;;;;;4950099;28;20069;-64
2022/03/31 08:46:09;;;;;;;4.22;2.30;;;;;;;;;;4949888;28;20426;-63
2022/03/31 08:48:36;;;;;;;4.53;2.65;;;;;;;;;;4950841;28;20330;-63
2022/03/31 08:51:01;;;;;;;4.43;2.13;;;;;;;;;;4950773;28;20030;-64
2022/03/31 08:53:27;;;;;;;4.30;2.80;;;;;;;;;;4952081;28;20103;-63
2022/03/31 08:55:52;;;;;;;4.28;2.60;;;;;;;;;;4948957;28;20368;-63
2022/03/31 08:58:17;;;;;;;3.83;2.55;;;;;;;;;;4950264;28;20396;-63
2022/03/31 09:00:43;;;;;;;5.00;2.50;;;;;;;;;;4951171;28;20369;-64
2022/03/31 09:03:09;;;;;;;4.65;2.50;;;;;;;;;;4950120;28;20472;-64
2022/03/31 09:05:41;;;;;;;4.22;2.63;;;;;;;;;;4950520;28;20400;-63
2022/03/31 09:08:09;;;;;;;6.05;2.90;;;;;;;;;;4950292;28;20519;-65
2022/03/31 09:10:42;;;;;;;4.10;2.87;;;;;;;;;;4950418;28;20505;-64
2022/03/31 09:13:28;;;;;;;8.60;3.60;;;;;;;;;;4949994;28;20818;-64
2022/03/31 09:16:02;;;;;;;8.43;4.15;;;;;;;;;;4951322;28;20115;-64
2022/03/31 09:18:29;;;;;;;8.20;3.83;;;;;;;;;;4950802;28;20322;-64
2022/03/31 09:20:57;;;;;;;7.80;3.72;;;;;;;;;;4949951;28;20442;-63
2022/03/31 09:23:28;;;;;;;11.27;4.32;;;;;;;;;;4949899;28;20406;-63
2022/03/31 09:26:08;;;;;;;8.32;3.78;;;;;;;;;;4949723;28;20341;-63
2022/03/31 09:28:34;;;;;;;6.82;3.60;;;;;;;;;;4951085;28;20421;-63
2022/03/31 09:30:59;;;;;;;5.03;3.40;;;;;;;;;;4949980;28;20452;-64
2022/03/31 09:33:35;;;;;;;6.68;3.25;;;;;;;;;;4950822;28;20464;-63
2022/03/31 09:36:11;;;;;;;5.85;2.80;;;;;;;;;;4951399;28;20428;-63
2022/03/31 09:38:37;;;;;;;6.55;3.38;;;;;;;;;;4949720;28;20365;-63
2022/03/31 09:41:30;;;;;;;8.65;3.75;;;;;;;;;;4949906;28;20374;-64
2022/03/31 09:43:57;;;;;;;6.25;3.42;;;;;;;;;;4949114;28;20453;-64
2022/03/31 09:46:22;;;;;;;5.78;3.42;;;;;;;;;;4950411;28;20437;-64
2022/03/31 09:48:49;;;;;;;8.55;3.50;;;;;;;;;;4949630;28;20345;-63
2022/03/31 09:51:15;;;;;;;5.75;3.38;;;;;;;;;;4949637;28;20442;-64
2022/03/31 09:53:41;;;;;;;7.45;3.42;;;;;;;;;;4949951;28;20381;-64
2022/03/31 09:56:07;;;;;;;6.50;3.10;;;;;;;;;;4949651;28;20385;-63
2022/03/31 09:58:37;;;;;;;4.82;2.92;;;;;;;;;;4949796;28;20101;-64
2022/03/31 10:01:03;;;;;;;5.43;2.75;;;;;;;;;;4949460;28;20392;-64
2022/03/31 10:03:29;;;;;;;6.53;3.15;;;;;;;;;;4949289;28;20033;-63
2022/03/31 10:05:55;;;;;;;7.53;3.05;;;;;;;;;;4950190;28;20033;-63
2022/03/31 10:08:20;;;;;;;4.32;3.08;;;;;;;;;;4949417;28;20037;-63
2022/03/31 10:10:46;;;;;;;6.55;3.28;;;;;;;;;;4949931;28;20465;-64
2022/03/31 10:13:22;;;;;;;7.47;3.42;;;;;;;;;;4949086;28;20403;-65
2022/03/31 10:15:50;;;;;;;6.32;3.47;;;;;;;;;;4949489;28;20436;-64
2022/03/31 10:18:16;;;;;;;5.88;2.97;;;;;;;;;;4948585;28;20388;-63
2022/03/31 10:20:57;;;;;;;5.78;3.08;;;;;;;;;;4948464;28;20333;-65
2022/03/31 10:26:07;;;;;;;11.05;3.67;;;;;;;;;;4949294;28;20370;-63
2022/03/31 10:28:32;;;;;;;6.22;2.40;;;;;;;;;;4949431;28;20364;-64
2022/03/31 10:31:00;;;;;;;5.07;3.22;;;;;;;;;;4949343;28;20484;-63
2022/03/31 10:33:30;;;;;;;4.93;3.05;;;;;;;;;;4949925;28;20022;-63
2022/03/31 10:36:13;;;;;;;3.83;2.95;;;;;;;;;;4949399;28;20461;-63
2022/03/31 10:38:56;;;;;;;4.97;3.22;;;;;;;;;;4949544;28;20338;-64
2022/03/31 10:41:29;;;;;;;3.78;2.67;;;;;;;;;;4948685;28;20440;-65
2022/03/31 10:43:58;;;;;;;5.30;3.13;;;;;;;;;;4948599;28;20535;-63
2022/03/31 10:46:23;;;;;;;5.15;3.03;;;;;;;;;;4949025;28;20446;-64
2022/03/31 10:48:54;;;;;;;5.22;3.22;;;;;;;;;;4948885;28;20331;-64
2022/03/31 10:51:31;;;;;;;5.78;3.40;;;;;;;;;;4951444;28;20433;-64
2022/03/31 10:53:57;;;;;;;5.57;3.47;;;;;;;;;;4953671;28;20451;-63
2022/03/31 10:56:25;;;;;;;8.10;3.58;;;;;;;;;;4952731;28;20441;-64
2022/03/31 10:58:52;;;;;;;6.40;3.75;;;;;;;;;;4952633;28;20052;-64
2022/03/31 11:01:19;;;;;;;6.53;4.30;;;;;;;;;;4952980;28;20349;-63
2022/03/31 11:03:50;;;;;;;8.18;4.43;;;;;;;;;;4952304;28;20450;-64
2022/03/31 11:06:17;;;;;;;6.03;3.60;;;;;;;;;;4951935;28;20528;-64
2022/03/31 11:08:46;;;;;;;6.93;4.40;;;;;;;;;;4952622;28;20445;-63
2022/03/31 11:11:29;;;;;;;7.70;4.80;;;;;;;;;;4952895;28;20283;-64
2022/03/31 11:13:57;;;;;;;8.65;5.30;;;;;;;;;;4952360;28;20441;-65
2022/03/31 11:16:23;;;;;;;7.80;4.78;;;;;;;;;;4951941;28;20409;-64
2022/03/31 11:18:54;;;;;;;9.35;5.63;;;;;;;;;;4950793;28;20345;-63
2022/03/31 11:21:19;;;;;;;9.52;5.13;;;;;;;;;;4952767;28;20310;-64
2022/03/31 11:23:47;;;;;;;8.85;4.90;;;;;;;;;;4952833;28;20341;-64
2022/03/31 11:26:15;;;;;;;6.78;4.30;;;;;;;;;;4952566;28;20412;-64
2022/03/31 11:28:40;;;;;;;10.87;5.03;;;;;;;;;;4952800;28;20330;-63
2022/03/31 11:31:13;;;;;;;8.85;4.82;;;;;;;;;;4951830;28;20397;-63
2022/03/31 11:33:39;;;;;;;7.78;4.63;;;;;;;;;;4951693;28;20030;-64
2022/03/31 11:36:05;;;;;;;8.77;4.82;;;;;;;;;;4952239;28;20444;-64
2022/03/31 11:38:30;;;;;;;7.32;4.45;;;;;;;;;;4952294;28;20421;-63
2022/03/31 11:40:56;;;;;;;7.28;4.60;;;;;;;;;;4951768;28;20049;-63
2022/03/31 11:43:22;;;;;;;8.23;4.85;;;;;;;;;;4951565;28;20519;-65
2022/03/31 11:45:49;;;;;;;11.23;5.38;;;;;;;;;;4951564;28;20455;-65
2022/03/31 11:48:20;;;;;;;8.63;4.45;;;;;;;;;;4951520;28;20523;-63
2022/03/31 11:50:55;;;;;;;9.90;5.03;;;;;;;;;;4951657;28;20095;-64
2022/03/31 11:53:25;;;;;;;6.95;4.50;;;;;;;;;;4952270;28;20704;-63
2022/03/31 11:56:09;;;;;;;11.63;5.13;;;;;;;;;;4951171;28;20341;-63
2022/03/31 11:58:46;;;;;;;8.48;4.72;;;;;;;;;;4951620;28;20515;-64
2022/03/31 12:01:12;;;;;;;7.97;4.43;;;;;;;;;;4951015;28;20034;-64
2022/03/31 12:03:39;;;;;;;9.90;5.28;;;;;;;;;;4953237;28;20461;-63
2022/03/31 12:06:06;;;;;;;10.30;4.68;;;;;;;;;;4951559;28;20575;-63
2022/03/31 12:08:31;;;;;;;10.32;4.82;;;;;;;;;;4952627;28;20385;-64
2022/03/31 12:10:57;;;;;;;8.30;4.88;;;;;;;;;;4950838;28;20433;-64
2022/03/31 12:13:25;;;;;;;7.03;4.68;;;;;;;;;;4951993;28;20368;-64
2022/03/31 12:16:02;;;;;;;9.07;4.93;;;;;;;;;;4951469;28;20436;-64
2022/03/31 12:18:30;;;;;;;8.20;4.60;;;;;;;;;;4950991;28;20318;-64
2022/03/31 12:20:58;;;;;;;13.47;5.27;;;;;;;;;;4951071;28;20499;-63
2022/03/31 12:23:28;;;;;;;9.57;5.93;;;;;;;;;;4951248;28;20288;-64
2022/03/31 12:25:54;;;;;;;8.35;4.88;;;;;;;;;;4950041;28;20353;-63
2022/03/31 12:28:23;;;;;;;7.88;4.30;;;;;;;;;;4951603;28;20070;-64
2022/03/31 12:30:55;;;;;;;9.18;4.32;;;;;;;;;;4950814;28;20434;-64
2022/03/31 12:33:23;;;;;;;9.98;5.05;;;;;;;;;;4950855;28;20141;-64
2022/03/31 12:36:06;;;;;;;9.60;4.75;;;;;;;;;;4951063;28;20425;-64
2022/03/31 12:38:39;;;;;;;7.72;4.47;;;;;;;;;;4950837;28;20453;-63
2022/03/31 12:41:33;;;;;;;8.82;5.53;;;;;;;;;;4950671;28;20029;-64
2022/03/31 12:44:20;;;;;;;9.00;4.40;;;;;;;;;;4940284;28;20465;-64
2022/03/31 12:46:53;;;;;;;12.52;5.18;;;;;;;;;;4951043;28;20041;-64
2022/03/31 12:49:39;;;;;;;8.73;4.97;;;;;;;;;;4951497;28;20409;-64
2022/03/31 12:52:16;;;;;;;9.07;4.20;;;;;;;;;;4950213;28;20388;-63
2022/03/31 12:54:48;;;;;;;9.93;4.70;;;;;;;;;;4950510;28;20053;-63
2022/03/31 12:57:19;;;;;;;7.70;4.50;;;;;;;;;;4951380;28;20398;-64
2022/03/31 13:00:06;;;;;;;7.63;4.55;;;;;;;;;;4951783;28;20033;-63
2022/03/31 13:02:36;;;;;;;8.38;5.38;;;;;;;;;;4950169;28;20444;-63
2022/03/31 13:05:03;;;;;;;11.27;5.38;;;;;;;;;;4950216;28;20385;-64
2022/03/31 13:07:28;;;;;;;9.52;4.93;;;;;;;;;;4951623;28;20389;-63
2022/03/31 13:10:01;;;;;;;6.68;3.90;;;;;;;;;;4950411;28;20022;-63
2022/03/31 13:12:29;;;;;;;11.25;5.70;;;;;;;;;;4949562;28;20425;-63
2022/03/31 13:14:55;;;;;;;9.27;5.20;;;;;;;;;;4950715;28;20442;-63
2022/03/31 13:17:20;;;;;;;9.50;5.68;;;;;;;;;;4950145;28;20084;-64
2022/03/31 13:19:47;;;;;;;9.70;5.50;;;;;;;;;;4950316;28;20512;-64
2022/03/31 13:22:20;;;;;;;13.65;6.10;;;;;;;;;;4950537;28;20437;-63
2022/03/31 13:24:45;;;;;;;10.25;5.97;;;;;;;;;;4949964;28;20017;-63
2022/03/31 13:27:11;;;;;;;13.98;5.85;;;;;;;;;;4949835;28;20034;-63
2022/03/31 13:29:37;;;;;;;11.48;6.75;;;;;;;;;;4949903;28;20453;-64
2022/03/31 13:32:02;;;;;;;14.90;6.20;;;;;;;;;;4950313;28;20034;-64
2022/03/31 13:34:29;;;;;;;12.55;6.60;;;;;;;;;;4950127;28;20714;-63
2022/03/31 13:36:59;;;;;;;12.70;5.50;;;;;;;;;;4950285;28;20326;-64
2022/03/31 13:39:25;;;;;;;10.57;5.38;;;;;;;;;;4949476;28;20426;-64
2022/03/31 13:41:50;;;;;;;13.57;5.30;;;;;;;;;;4950387;28;20350;-65
2022/03/31 13:44:16;;;;;;;11.88;6.22;;;;;;;;;;4949247;28;20100;-63
2022/03/31 13:46:42;;;;;;;13.38;5.95;;;;;;;;;;4950146;28;20341;-64
2022/03/31 13:49:09;;;;;;;10.65;5.68;;;;;;;;;;4949973;28;20049;-64
2022/03/31 13:51:35;;;;;;;11.02;5.75;;;;;;;;;;4950263;28;20448;-64
2022/03/31 13:54:05;;;;;;;9.32;6.35;;;;;;;;;;4950942;28;20369;-63
2022/03/31 13:56:33;;;;;;;12.15;6.13;;;;;;;;;;4949302;28;20372;-63
2022/03/31 14:01:43;;;;;;;11.65;6.13;;;;;;;;;;4950301;28;20073;-63
2022/03/31 14:04:08;;;;;;;9.80;5.68;;;;;;;;;;4949925;28;20022;-64
2022/03/31 14:06:33;;;;;;;9.48;5.50;;;;;;;;;;4949380;28;20497;-64
2022/03/31 14:09:05;;;;;;;12.10;6.22;;;;;;;;;;4949645;28;20474;-64
2022/03/31 14:11:30;;;;;;;9.18;5.00;;;;;;;;;;4949258;28;20049;-63
2022/03/31 14:13:57;;;;;;;12.85;6.25;;;;;;;;;;4949445;28;20571;-64
2022/03/31 14:16:23;;;;;;;10.85;5.88;;;;;;;;;;4949045;28;20461;-64
2022/03/31 14:18:50;;;;;;;10.35;5.88;;;;;;;;;;4950265;28;20445;-64
2022/03/31 14:21:16;;;;;;;10.60;6.07;;;;;;;;;;4949202;28;20345;-64
2022/03/31 14:23:42;;;;;;;10.88;6.20;;;;;;;;;;4949169;28;20376;-63
2022/03/31 14:26:08;;;;;;;11.57;5.25;;;;;;;;;;4953172;28;20467;-64
2022/03/31 14:28:36;;;;;;;9.57;5.85;;;;;;;;;;4951527;28;20507;-64
2022/03/31 14:31:07;;;;;;;12.02;6.53;;;;;;;;;;4954065;28;20340;-64
2022/03/31 14:33:33;;;;;;;10.95;5.97;;;;;;;;;;4952804;28;20453;-63
2022/03/31 14:35:59;;;;;;;12.50;6.38;;;;;;;;;;4954697;28;20495;-63
2022/03/31 14:38:25;;;;;;;9.80;5.25;;;;;;;;;;4953383;28;20460;-63
2022/03/31 14:40:53;;;;;;;11.48;5.78;;;;;;;;;;4953997;28;20058;-64
2022/03/31 14:43:20;;;;;;;12.60;6.20;;;;;;;;;;4953151;28;20368;-64
2022/03/31 14:45:47;;;;;;;12.98;6.15;;;;;;;;;;4952816;28;20452;-64
2022/03/31 14:48:12;;;;;;;9.07;6.05;;;;;;;;;;4953666;28;20340;-64